• Join FlightAware (Why Join?)
  • Login
  • US Flag 
06:45AM EDT


 

Airport Tracker/Info


-or-


 

Live Flight TrackerFlight Track Log ✈ SWA1969 ✈ 18-Apr-2013 ✈ KMCI - KMDW

Flight Track Log - Related Links

Times and Time Zones

All times are in EDT time to prevent confusion due to time zone crossing. See the SWA1969 flight status page for this flight to view local times or setup timezone preferences in your user account.

Time Position Orientation Groundspeed Altitude Reporting Facility
EDT Latitude Longitude Course Direction KTS MPH feet Rate Location/Type
12:25PM 39.3500 -94.7000 12° North 193 222 2,800  Level Kansas City TRACON
12:26PM 39.3947 -94.6467 43° Northeast 232 267 4,700 2,100 Climbing Kansas City Center
12:27PM 39.4472 -94.5719 48° Northeast 293 337 7,100 2,760 Climbing Kansas City Center
12:28PM 39.5169 -94.4775 46° Northeast 323 372 10,300 2,460 Climbing Kansas City Center
12:29PM 39.5869 -94.3811 47° Northeast 388 447 12,200 2,160 Climbing Kansas City Center
12:30PM 39.6756 -94.2578 47° Northeast 422 486 14,800 2,520 Climbing Kansas City Center
12:31PM 39.7464 -94.1308 54° Northeast 451 519 17,400 2,460 Climbing Kansas City Center
12:32PM 39.8186 -93.9972 55° Northeast 463 533 19,900 2,160 Climbing Kansas City Center
12:33PM 39.8897 -93.8475 58° Northeast 483 556 22,000 2,160 Climbing Kansas City Center
12:34PM 39.9244 -93.6833 75° East 472 543 24,300 2,160 Climbing Kansas City Center
12:35PM 39.9681 -93.4847 74° East 480 552 26,500 2,040 Climbing Kansas City Center
12:36PM 40.0047 -93.3150 74° East 487 560 28,600 2,040 Climbing Kansas City Center
12:37PM 40.0386 -93.1500 75° East 477 549 30,700 1,140 Climbing Kansas City Center
12:38PM 40.0742 -92.9778 75° East 474 545 31,000  Climbing Kansas City Center
12:39PM 40.1061 -92.8189 75° East 474 545 30,700 -780 Descending Kansas City Center
12:40PM 40.1436 -92.6350 75° East 471 542 29,500 -960 Descending Kansas City Center
12:41PM 40.1750 -92.4797 75° East 456 525 28,800 -900 Descending Kansas City Center
12:42PM 40.2092 -92.3178 75° East 452 520 27,700 -900 Descending Kansas City Center
12:43PM 40.2394 -92.1600 76° East 454 522 27,000 -360 Descending Kansas City Center
12:44PM 40.2692 -92.0056 76° East 446 513 27,000  Level Kansas City Center
12:45PM 40.3086 -91.8186 74° East 447 514 27,000  Level Kansas City Center
12:46PM 40.3364 -91.6606 77° East 449 517 27,000  Level Kansas City Center
12:47PM 40.3669 -91.5036 76° East 449 517 27,000  Level Kansas City Center
12:48PM 40.3861 -91.4094 75° East 449 517 27,000  Level Chicago Center
12:49PM 40.4147 -91.2550 76° East 449 517 27,000  Level Chicago Center
12:50PM 40.4444 -91.0958 76° East 450 518 27,000  Level Chicago Center
12:51PM 40.4811 -90.9019 76° East 456 525 27,000  Level Chicago Center
12:52PM 40.5108 -90.7411 76° East 455 524 27,000 -120 Level Chicago Center
12:53PM 40.5686 -90.5894 63° Northeast 464 534 26,800 -600 Descending Chicago Center
12:54PM 40.6336 -90.4447 59° Northeast 459 528 25,800 -1,020 Descending Chicago Center
12:55PM 40.6978 -90.3017 59° Northeast 454 522 24,800 -960 Descending Chicago Center
12:56PM 40.7578 -90.1667 60° Northeast 448 516 23,900 -1,080 Descending Chicago Center
12:57PM 40.8300 -90.0031 60° Northeast 435 501 22,700 -1,080 Descending Chicago Center
12:58PM 40.8878 -89.8681 60° Northeast 427 491 21,700 -1,020 Descending Chicago Center
12:59PM 40.9456 -89.7353 60° Northeast 420 483 20,700 -1,200 Descending Chicago Center
01:00PM 41.0025 -89.6044 60° Northeast 413 475 19,300 -1,620 Descending Chicago Center
01:01PM 41.0656 -89.4600 60° Northeast 400 460 17,300 -1,620 Descending Chicago Center
01:02PM 41.1175 -89.3367 61° Northeast 387 445 16,000 -1,200 Descending Chicago Center
01:03PM 41.1686 -89.2178 60° Northeast 374 430 14,900 -1,260 Descending Chicago Center
01:04PM 41.2194 -89.0994 60° Northeast 358 412 13,500 -1,440 Descending Chicago Center
01:05PM 41.2656 -88.9906 61° Northeast 341 392 12,000 -1,380 Descending Chicago Center
01:06PM 41.3092 -88.8839 61° Northeast 333 383 10,700 -1,140 Descending Chicago Center
01:07PM 41.3511 -88.7856 60° Northeast 313 360 9,700 -1,200 Descending Chicago Center
01:08PM 41.3928 -88.6883 60° Northeast 306 352 8,300 -1,320 Descending Chicago Center
01:09PM 41.4333 -88.5889 61° Northeast 306 352 7,000 -1,140 Descending Chicago Center
01:10PM 41.4833 -88.4706 61° Northeast 307 353 6,000 -1,020 Descending Chicago Center
01:11PM 41.5236 -88.3722 61° Northeast 305 351 5,000 -540 Descending Chicago Center
01:12PM 41.5339 -88.2650 83° East 300 345 5,000  Level Chicago Center
01:13PM 41.5431 -88.1564 84° East 295 339 5,000  Level Chicago Center
01:15PM 41.5539 -88.0450 83° East 302 348 5,000  Level Chicago Center
01:16PM 41.5656 -87.9328 82° East 304 350 5,000 -180 Level Chicago Center
01:17PM 41.5747 -87.8250 83° East 299 344 4,700 -720 Descending Chicago Center
01:18PM 41.5850 -87.7242 82° East 287 330 3,600 -840 Descending Chicago Center
01:19PM 41.6092 -87.6350 70° East 278 320 3,000 -540 Descending Chicago Center
01:20PM 41.6678 -87.5958 27° Northeast 266 306 2,600 -300 Descending Chicago Center
01:21PM 41.7167 -87.6500 320° Northwest 177 204 2,500 -480 Descending Chicago TRACON
01:22PM 41.7500 -87.7000 312° West 160 184 1,700 -900 Descending Chicago TRACON
01:23PM 41.7667 -87.7333 304° West 152 175 800 -900 Descending Chicago TRACON